JST516 YMML-YSSY
Flight info
| Callsign | JST516 |
|---|---|
| Flight time | 1h 7m |
| Altitude | 35000 |
| Route | ML H129 DOSEL Y59 RIVET |
| Aircraft | A321/M-SDE3FGHIRWY/LB1 |
Departure
| Time | 2026-04-25 04:03 |
|---|---|
| Airport | Melbourne Airport (YMML) |
Arrival
| Time | 2026-04-25 05:10 |
|---|---|
| Airport | Sydney Kingsford Smith International Airport (YSSY) |
| Time | Latitude | Longitude | Altitude | Speed | Heading |
|---|---|---|---|---|---|
| 2026-04-25 03:32 | -37.67629 | 144.84752 | 376 ft | 0 kts | 351° |
| 2026-04-25 03:48 | -37.67648 | 144.84756 | 375 ft | 4 kts | 351° |
| 2026-04-25 03:48 | -37.67675 | 144.84762 | 374 ft | 4 kts | 352° |
| 2026-04-25 03:48 | -37.67702 | 144.84765 | 373 ft | 4 kts | 0° |
| 2026-04-25 03:48 | -37.67726 | 144.84760 | 372 ft | 4 kts | 46° |
| 2026-04-25 03:49 | -37.67733 | 144.84739 | 372 ft | 4 kts | 81° |
| 2026-04-25 03:49 | -37.67737 | 144.84705 | 371 ft | 4 kts | 81° |
| 2026-04-25 03:49 | -37.67741 | 144.84673 | 371 ft | 2 kts | 82° |
| 2026-04-25 03:49 | -37.67745 | 144.84646 | 370 ft | 4 kts | 67° |
| 2026-04-25 03:50 | -37.67759 | 144.84618 | 372 ft | 4 kts | 39° |
| 2026-04-25 03:50 | -37.67782 | 144.84602 | 369 ft | 4 kts | 12° |
| 2026-04-25 03:50 | -37.67807 | 144.84599 | 366 ft | 2 kts | 352° |
| 2026-04-25 03:50 | -37.67829 | 144.84603 | 366 ft | 4 kts | 351° |
| 2026-04-25 03:51 | -37.67856 | 144.84608 | 366 ft | 4 kts | 351° |
| 2026-04-25 03:51 | -37.67883 | 144.84613 | 363 ft | 4 kts | 351° |
| 2026-04-25 03:51 | -37.67893 | 144.84615 | 363 ft | 0 kts | 351° |
| 2026-04-25 03:55 | -37.67889 | 144.84614 | 362 ft | 1 kts | 351° |
| 2026-04-25 03:55 | -37.67865 | 144.84609 | 364 ft | 6 kts | 351° |
| 2026-04-25 03:56 | -37.67827 | 144.84569 | 367 ft | 9 kts | 294° |
| 2026-04-25 03:56 | -37.67829 | 144.84482 | 370 ft | 11 kts | 262° |
| 2026-04-25 03:56 | -37.67842 | 144.84377 | 365 ft | 13 kts | 262° |
| 2026-04-25 03:56 | -37.67857 | 144.84246 | 364 ft | 16 kts | 261° |
| 2026-04-25 03:57 | -37.67871 | 144.84134 | 363 ft | 7 kts | 261° |
| 2026-04-25 03:57 | -37.67873 | 144.84117 | 364 ft | 0 kts | 261° |
| 2026-04-25 03:57 | -37.67873 | 144.84116 | 364 ft | 0 kts | 261° |
| 2026-04-25 04:01 | -37.67874 | 144.84108 | 358 ft | 3 kts | 261° |
| 2026-04-25 04:02 | -37.67880 | 144.84053 | 359 ft | 9 kts | 261° |
| 2026-04-25 04:02 | -37.67887 | 144.83990 | 358 ft | 4 kts | 268° |
| 2026-04-25 04:02 | -37.67873 | 144.83969 | 357 ft | 2 kts | 334° |
| 2026-04-25 04:02 | -37.67851 | 144.83964 | 358 ft | 5 kts | 350° |
| 2026-04-25 04:03 | -37.67775 | 144.83950 | 364 ft | 19 kts | 352° |
| 2026-04-25 04:03 | -37.67403 | 144.83881 | 372 ft | 92 kts | 352° |
| 2026-04-25 04:03 | -37.66548 | 144.83726 | 468 ft | 149 kts | 353° |
| 2026-04-25 04:03 | -37.65506 | 144.83531 | 1318 ft | 153 kts | 353° |
| 2026-04-25 04:04 | -37.64436 | 144.83337 | 2264 ft | 158 kts | 352° |
| 2026-04-25 04:04 | -37.63278 | 144.83116 | 2959 ft | 176 kts | 352° |
| 2026-04-25 04:04 | -37.62110 | 144.82888 | 3188 ft | 175 kts | 351° |
| 2026-04-25 04:04 | -37.60828 | 144.82634 | 3386 ft | 196 kts | 351° |
| 2026-04-25 04:05 | -37.59390 | 144.82411 | 3546 ft | 222 kts | 0° |
| 2026-04-25 04:05 | -37.57843 | 144.83016 | 3903 ft | 244 kts | 22° |
| 2026-04-25 04:05 | -37.56295 | 144.83967 | 4572 ft | 252 kts | 21° |
| 2026-04-25 04:05 | -37.54704 | 144.84944 | 5319 ft | 256 kts | 19° |
| 2026-04-25 04:06 | -37.53097 | 144.85929 | 6102 ft | 257 kts | 20° |
| 2026-04-25 04:06 | -37.51478 | 144.86919 | 6852 ft | 261 kts | 20° |
| 2026-04-25 04:06 | -37.49831 | 144.87921 | 7504 ft | 265 kts | 20° |
| 2026-04-25 04:06 | -37.48179 | 144.88923 | 8140 ft | 270 kts | 20° |
| 2026-04-25 04:07 | -37.46476 | 144.89955 | 8785 ft | 274 kts | 20° |
| 2026-04-25 04:07 | -37.44756 | 144.91038 | 9457 ft | 281 kts | 26° |
| 2026-04-25 04:07 | -37.43205 | 144.92596 | 10126 ft | 292 kts | 42° |
| 2026-04-25 04:07 | -37.41943 | 144.94675 | 10571 ft | 308 kts | 50° |
| 2026-04-25 04:08 | -37.40661 | 144.96953 | 10710 ft | 331 kts | 50° |
| 2026-04-25 04:08 | -37.39283 | 144.99392 | 10877 ft | 350 kts | 51° |
| 2026-04-25 04:08 | -37.37858 | 145.01916 | 11394 ft | 357 kts | 51° |
| 2026-04-25 04:08 | -37.36415 | 145.04475 | 11987 ft | 361 kts | 51° |
| 2026-04-25 04:09 | -37.34959 | 145.07055 | 12619 ft | 364 kts | 51° |
| 2026-04-25 04:09 | -37.33486 | 145.09665 | 13260 ft | 367 kts | 51° |
| 2026-04-25 04:09 | -37.32003 | 145.12292 | 13893 ft | 370 kts | 52° |
| 2026-04-25 04:09 | -37.30505 | 145.14941 | 14478 ft | 374 kts | 51° |
| 2026-04-25 04:10 | -37.28992 | 145.17610 | 15037 ft | 377 kts | 52° |
| 2026-04-25 04:10 | -37.27464 | 145.20304 | 15601 ft | 380 kts | 51° |
| 2026-04-25 04:10 | -37.25921 | 145.23018 | 16161 ft | 383 kts | 52° |
| 2026-04-25 04:10 | -37.24368 | 145.25750 | 16728 ft | 387 kts | 51° |
| 2026-04-25 04:11 | -37.21202 | 145.31304 | 17784 ft | 395 kts | 52° |
| 2026-04-25 04:11 | -37.19593 | 145.34119 | 18312 ft | 399 kts | 52° |
| 2026-04-25 04:11 | -37.17965 | 145.36965 | 18821 ft | 403 kts | 51° |
| 2026-04-25 04:12 | -37.16326 | 145.39833 | 19291 ft | 406 kts | 52° |
| 2026-04-25 04:12 | -37.14677 | 145.42719 | 19761 ft | 409 kts | 52° |
| 2026-04-25 04:12 | -37.13017 | 145.45624 | 20255 ft | 412 kts | 52° |
| 2026-04-25 04:12 | -37.11343 | 145.48548 | 20759 ft | 414 kts | 51° |
| 2026-04-25 04:13 | -37.09653 | 145.51494 | 21234 ft | 417 kts | 52° |
| 2026-04-25 04:13 | -37.07953 | 145.54451 | 21711 ft | 420 kts | 52° |
| 2026-04-25 04:13 | -37.06241 | 145.57428 | 22196 ft | 422 kts | 52° |
| 2026-04-25 04:13 | -37.04521 | 145.60415 | 22651 ft | 425 kts | 52° |
| 2026-04-25 04:14 | -37.02786 | 145.63423 | 23092 ft | 427 kts | 52° |
| 2026-04-25 04:14 | -37.01040 | 145.66449 | 23513 ft | 430 kts | 52° |
| 2026-04-25 04:14 | -36.99285 | 145.69492 | 23934 ft | 433 kts | 51° |
| 2026-04-25 04:14 | -36.97516 | 145.72555 | 24296 ft | 435 kts | 52° |
| 2026-04-25 04:15 | -36.95740 | 145.75629 | 24653 ft | 438 kts | 51° |
| 2026-04-25 04:15 | -36.93950 | 145.78723 | 25007 ft | 440 kts | 52° |
| 2026-04-25 04:15 | -36.92154 | 145.81822 | 25375 ft | 441 kts | 52° |
| 2026-04-25 04:15 | -36.90348 | 145.84935 | 25727 ft | 444 kts | 52° |
| 2026-04-25 04:16 | -36.88532 | 145.88061 | 26062 ft | 446 kts | 52° |
| 2026-04-25 04:16 | -36.86705 | 145.91205 | 26390 ft | 448 kts | 52° |
| 2026-04-25 04:16 | -36.84870 | 145.94364 | 26725 ft | 451 kts | 52° |
| 2026-04-25 04:16 | -36.83049 | 145.97500 | 27051 ft | 453 kts | 52° |
| 2026-04-25 04:17 | -36.81193 | 146.00688 | 27383 ft | 455 kts | 52° |
| 2026-04-25 04:17 | -36.79328 | 146.03889 | 27699 ft | 458 kts | 51° |
| 2026-04-25 04:17 | -36.77451 | 146.07108 | 28014 ft | 460 kts | 52° |
| 2026-04-25 04:17 | -36.75565 | 146.10341 | 28318 ft | 462 kts | 52° |
| 2026-04-25 04:18 | -36.73666 | 146.13585 | 28641 ft | 464 kts | 52° |
| 2026-04-25 04:18 | -36.71761 | 146.16838 | 28948 ft | 466 kts | 52° |
| 2026-04-25 04:18 | -36.69847 | 146.20106 | 29255 ft | 468 kts | 52° |
| 2026-04-25 04:18 | -36.67927 | 146.23385 | 29557 ft | 470 kts | 52° |
| 2026-04-25 04:19 | -36.65996 | 146.26680 | 29852 ft | 472 kts | 52° |
| 2026-04-25 04:19 | -36.64052 | 146.29988 | 30155 ft | 474 kts | 52° |
| 2026-04-25 04:19 | -36.62098 | 146.33305 | 30447 ft | 476 kts | 52° |
| 2026-04-25 04:19 | -36.60141 | 146.36625 | 30806 ft | 475 kts | 53° |
| 2026-04-25 04:20 | -36.58192 | 146.39932 | 31168 ft | 474 kts | 53° |
| 2026-04-25 04:20 | -36.56247 | 146.43231 | 31515 ft | 473 kts | 53° |
| 2026-04-25 04:20 | -36.54302 | 146.46528 | 31856 ft | 472 kts | 53° |
| 2026-04-25 04:20 | -36.52362 | 146.49819 | 32201 ft | 471 kts | 53° |
| 2026-04-25 04:21 | -36.50426 | 146.53100 | 32548 ft | 471 kts | 53° |
| 2026-04-25 04:21 | -36.48487 | 146.56375 | 32860 ft | 470 kts | 53° |
| 2026-04-25 04:21 | -36.46548 | 146.59643 | 33167 ft | 470 kts | 53° |
| 2026-04-25 04:21 | -36.44606 | 146.62912 | 33478 ft | 470 kts | 53° |
| 2026-04-25 04:22 | -36.42667 | 146.66171 | 33800 ft | 469 kts | 53° |
| 2026-04-25 04:22 | -36.40725 | 146.69431 | 34127 ft | 469 kts | 53° |
| 2026-04-25 04:22 | -36.38791 | 146.72681 | 34436 ft | 468 kts | 53° |
| 2026-04-25 04:22 | -36.36855 | 146.75936 | 34707 ft | 468 kts | 53° |
| 2026-04-25 04:23 | -36.34926 | 146.79180 | 34972 ft | 467 kts | 53° |
| 2026-04-25 04:23 | -36.32996 | 146.82421 | 35239 ft | 467 kts | 53° |
| 2026-04-25 04:23 | -36.31066 | 146.85656 | 35345 ft | 466 kts | 53° |
| 2026-04-25 04:24 | -36.27214 | 146.92094 | 35361 ft | 464 kts | 53° |
| 2026-04-25 04:24 | -36.23367 | 146.98502 | 35361 ft | 463 kts | 53° |
| 2026-04-25 04:25 | -36.19518 | 147.04909 | 35361 ft | 464 kts | 53° |
| 2026-04-25 04:25 | -36.15673 | 147.11314 | 35366 ft | 464 kts | 53° |
| 2026-04-25 04:26 | -36.11824 | 147.17713 | 35366 ft | 464 kts | 53° |
| 2026-04-25 04:26 | -36.08618 | 147.23028 | 35366 ft | 464 kts | 53° |
| 2026-04-25 04:27 | -36.04101 | 147.30494 | 35362 ft | 464 kts | 53° |
| 2026-04-25 04:27 | -36.00235 | 147.36879 | 35364 ft | 464 kts | 53° |
| 2026-04-25 04:28 | -35.96386 | 147.43215 | 35372 ft | 464 kts | 53° |
| 2026-04-25 04:28 | -35.92512 | 147.49588 | 35375 ft | 464 kts | 53° |
| 2026-04-25 04:29 | -35.89261 | 147.54923 | 35374 ft | 464 kts | 53° |
| 2026-04-25 04:29 | -35.85375 | 147.61288 | 35374 ft | 464 kts | 53° |
| 2026-04-25 04:30 | -35.81484 | 147.67641 | 35378 ft | 464 kts | 53° |
| 2026-04-25 04:30 | -35.77594 | 147.73991 | 35370 ft | 464 kts | 53° |
| 2026-04-25 04:31 | -35.73703 | 147.80339 | 35371 ft | 465 kts | 53° |
| 2026-04-25 04:31 | -35.69810 | 147.86686 | 35373 ft | 465 kts | 53° |
| 2026-04-25 04:32 | -35.65908 | 147.93021 | 35378 ft | 465 kts | 53° |
| 2026-04-25 04:32 | -35.62000 | 147.99349 | 35375 ft | 465 kts | 53° |
| 2026-04-25 04:33 | -35.58090 | 148.05668 | 35374 ft | 465 kts | 53° |
| 2026-04-25 04:33 | -35.54179 | 148.11990 | 35374 ft | 465 kts | 53° |
| 2026-04-25 04:34 | -35.50260 | 148.18299 | 35370 ft | 465 kts | 53° |
| 2026-04-25 04:34 | -35.46368 | 148.24556 | 35378 ft | 465 kts | 53° |
| 2026-04-25 04:35 | -35.42447 | 148.30856 | 35380 ft | 465 kts | 53° |
| 2026-04-25 04:35 | -35.38523 | 148.37149 | 35378 ft | 464 kts | 53° |
| 2026-04-25 04:36 | -35.34603 | 148.43431 | 35377 ft | 464 kts | 53° |
| 2026-04-25 04:36 | -35.30671 | 148.49707 | 35378 ft | 464 kts | 53° |
| 2026-04-25 04:37 | -35.26742 | 148.55974 | 35379 ft | 464 kts | 53° |
| 2026-04-25 04:37 | -35.22814 | 148.62224 | 35378 ft | 463 kts | 53° |
| 2026-04-25 04:38 | -35.18889 | 148.68462 | 35375 ft | 463 kts | 53° |
| 2026-04-25 04:38 | -35.14960 | 148.74693 | 35374 ft | 463 kts | 53° |
| 2026-04-25 04:39 | -35.11029 | 148.80910 | 35380 ft | 462 kts | 53° |
| 2026-04-25 04:39 | -35.07097 | 148.87120 | 35377 ft | 462 kts | 53° |
| 2026-04-25 04:40 | -35.03170 | 148.93318 | 35371 ft | 462 kts | 53° |
| 2026-04-25 04:40 | -34.99242 | 148.99510 | 35370 ft | 461 kts | 53° |
| 2026-04-25 04:41 | -34.95310 | 149.05688 | 35376 ft | 461 kts | 53° |
| 2026-04-25 04:41 | -34.91374 | 149.11863 | 35376 ft | 461 kts | 53° |
| 2026-04-25 04:42 | -34.87443 | 149.18024 | 35371 ft | 461 kts | 53° |
| 2026-04-25 04:42 | -34.83513 | 149.24181 | 35361 ft | 461 kts | 53° |
| 2026-04-25 04:42 | -34.81535 | 149.27269 | 34741 ft | 466 kts | 53° |
| 2026-04-25 04:43 | -34.79524 | 149.30404 | 33821 ft | 472 kts | 53° |
| 2026-04-25 04:43 | -34.77495 | 149.33559 | 32978 ft | 475 kts | 53° |
| 2026-04-25 04:43 | -34.75461 | 149.36720 | 32339 ft | 473 kts | 53° |
| 2026-04-25 04:43 | -34.73589 | 149.39965 | 31818 ft | 467 kts | 61° |
| 2026-04-25 04:44 | -34.72064 | 149.43436 | 31313 ft | 463 kts | 64° |
| 2026-04-25 04:44 | -34.70574 | 149.46888 | 30774 ft | 460 kts | 64° |
| 2026-04-25 04:44 | -34.69086 | 149.50312 | 30210 ft | 457 kts | 64° |
| 2026-04-25 04:44 | -34.67602 | 149.53711 | 29663 ft | 452 kts | 63° |
| 2026-04-25 04:45 | -34.66134 | 149.57063 | 29134 ft | 447 kts | 63° |
| 2026-04-25 04:45 | -34.64678 | 149.60379 | 28619 ft | 442 kts | 63° |
| 2026-04-25 04:45 | -34.63236 | 149.63656 | 28098 ft | 438 kts | 63° |
| 2026-04-25 04:45 | -34.61808 | 149.66901 | 27593 ft | 433 kts | 63° |
| 2026-04-25 04:46 | -34.60397 | 149.70110 | 27094 ft | 429 kts | 63° |
| 2026-04-25 04:46 | -34.59001 | 149.73285 | 26610 ft | 424 kts | 63° |
| 2026-04-25 04:46 | -34.57619 | 149.76431 | 26126 ft | 420 kts | 63° |
| 2026-04-25 04:46 | -34.56251 | 149.79546 | 25649 ft | 416 kts | 63° |
| 2026-04-25 04:47 | -34.54917 | 149.82583 | 25210 ft | 412 kts | 63° |
| 2026-04-25 04:47 | -34.53574 | 149.85639 | 24759 ft | 409 kts | 63° |
| 2026-04-25 04:47 | -34.52243 | 149.88664 | 24323 ft | 406 kts | 63° |
| 2026-04-25 04:47 | -34.50917 | 149.91672 | 23878 ft | 403 kts | 63° |
| 2026-04-25 04:48 | -34.49601 | 149.94654 | 23390 ft | 399 kts | 63° |
| 2026-04-25 04:48 | -34.48298 | 149.97603 | 22969 ft | 395 kts | 63° |
| 2026-04-25 04:48 | -34.47006 | 150.00519 | 22533 ft | 391 kts | 63° |
| 2026-04-25 04:48 | -34.45725 | 150.03411 | 22095 ft | 388 kts | 63° |
| 2026-04-25 04:49 | -34.44454 | 150.06279 | 21658 ft | 384 kts | 63° |
| 2026-04-25 04:49 | -34.43196 | 150.09123 | 21203 ft | 382 kts | 63° |
| 2026-04-25 04:49 | -34.41942 | 150.11948 | 20756 ft | 379 kts | 63° |
| 2026-04-25 04:49 | -34.40698 | 150.14742 | 20301 ft | 376 kts | 62° |
| 2026-04-25 04:50 | -34.39464 | 150.17519 | 19851 ft | 373 kts | 63° |
| 2026-04-25 04:50 | -34.38236 | 150.20282 | 19384 ft | 371 kts | 63° |
| 2026-04-25 04:50 | -34.37015 | 150.23024 | 18914 ft | 369 kts | 63° |
| 2026-04-25 04:50 | -34.35801 | 150.25749 | 18429 ft | 367 kts | 63° |
| 2026-04-25 04:51 | -34.34594 | 150.28455 | 17950 ft | 363 kts | 62° |
| 2026-04-25 04:51 | -34.33399 | 150.31129 | 17485 ft | 359 kts | 63° |
| 2026-04-25 04:51 | -34.32215 | 150.33774 | 17041 ft | 356 kts | 63° |
| 2026-04-25 04:51 | -34.31045 | 150.36388 | 16597 ft | 352 kts | 63° |
| 2026-04-25 04:52 | -34.29885 | 150.38983 | 16148 ft | 349 kts | 63° |
| 2026-04-25 04:52 | -34.28736 | 150.41552 | 15710 ft | 346 kts | 62° |
| 2026-04-25 04:52 | -34.27597 | 150.44100 | 15272 ft | 343 kts | 63° |
| 2026-04-25 04:52 | -34.26465 | 150.46631 | 14830 ft | 341 kts | 62° |
| 2026-04-25 04:53 | -34.25342 | 150.49142 | 14392 ft | 339 kts | 62° |
| 2026-04-25 04:53 | -34.24224 | 150.51643 | 13936 ft | 337 kts | 62° |
| 2026-04-25 04:53 | -34.23113 | 150.54128 | 13495 ft | 334 kts | 62° |
| 2026-04-25 04:53 | -34.22011 | 150.56587 | 13064 ft | 331 kts | 62° |
| 2026-04-25 04:54 | -34.20920 | 150.59023 | 12625 ft | 329 kts | 62° |
| 2026-04-25 04:54 | -34.19833 | 150.61444 | 12213 ft | 326 kts | 62° |
| 2026-04-25 04:54 | -34.18754 | 150.63841 | 11798 ft | 324 kts | 62° |
| 2026-04-25 04:54 | -34.17683 | 150.66219 | 11385 ft | 322 kts | 62° |
| 2026-04-25 04:55 | -34.16618 | 150.68586 | 10976 ft | 320 kts | 63° |
| 2026-04-25 04:55 | -34.15564 | 150.70932 | 10669 ft | 314 kts | 63° |
| 2026-04-25 04:55 | -34.14550 | 150.73191 | 10414 ft | 300 kts | 62° |
| 2026-04-25 04:55 | -34.13564 | 150.75382 | 9957 ft | 293 kts | 62° |
| 2026-04-25 04:56 | -34.12600 | 150.77517 | 9841 ft | 289 kts | 62° |
| 2026-04-25 04:56 | -34.11641 | 150.79640 | 9518 ft | 287 kts | 62° |
| 2026-04-25 04:56 | -34.10689 | 150.81754 | 9156 ft | 286 kts | 62° |
| 2026-04-25 04:56 | -34.09745 | 150.83853 | 8829 ft | 284 kts | 62° |
| 2026-04-25 04:57 | -34.08805 | 150.85952 | 8606 ft | 285 kts | 62° |
| 2026-04-25 04:57 | -34.07863 | 150.88045 | 8362 ft | 283 kts | 62° |
| 2026-04-25 04:57 | -34.06923 | 150.90127 | 8112 ft | 282 kts | 61° |
| 2026-04-25 04:57 | -34.05983 | 150.92204 | 7934 ft | 283 kts | 61° |
| 2026-04-25 04:58 | -34.05055 | 150.94256 | 7640 ft | 281 kts | 61° |
| 2026-04-25 04:58 | -34.04121 | 150.96322 | 7392 ft | 280 kts | 61° |
| 2026-04-25 04:58 | -34.03191 | 150.98382 | 7144 ft | 279 kts | 61° |
| 2026-04-25 04:58 | -34.02250 | 151.00461 | 7008 ft | 279 kts | 61° |
| 2026-04-25 04:59 | -34.01339 | 151.02491 | 7005 ft | 280 kts | 62° |
| 2026-04-25 04:59 | -34.00315 | 151.04477 | 7007 ft | 279 kts | 47° |
| 2026-04-25 04:59 | -33.98714 | 151.05803 | 7009 ft | 277 kts | 19° |
| 2026-04-25 04:59 | -33.96844 | 151.06085 | 7009 ft | 278 kts | 352° |
| 2026-04-25 05:00 | -33.94965 | 151.05559 | 7007 ft | 275 kts | 344° |
| 2026-04-25 05:00 | -33.93179 | 151.04907 | 7004 ft | 261 kts | 343° |
| 2026-04-25 05:00 | -33.91462 | 151.04263 | 7008 ft | 258 kts | 343° |
| 2026-04-25 05:00 | -33.89760 | 151.03645 | 6799 ft | 254 kts | 342° |
| 2026-04-25 05:01 | -33.88070 | 151.03040 | 6488 ft | 253 kts | 343° |
| 2026-04-25 05:01 | -33.86400 | 151.02437 | 6272 ft | 246 kts | 343° |
| 2026-04-25 05:01 | -33.84794 | 151.01853 | 6135 ft | 237 kts | 343° |
| 2026-04-25 05:01 | -33.83236 | 151.01273 | 5854 ft | 231 kts | 343° |
| 2026-04-25 05:02 | -33.81731 | 151.00700 | 5584 ft | 225 kts | 342° |
| 2026-04-25 05:02 | -33.80249 | 151.00132 | 5280 ft | 222 kts | 343° |
| 2026-04-25 05:02 | -33.78794 | 150.99563 | 4977 ft | 218 kts | 343° |
| 2026-04-25 05:02 | -33.77362 | 150.99003 | 4670 ft | 215 kts | 343° |
| 2026-04-25 05:03 | -33.75950 | 150.98450 | 4368 ft | 212 kts | 343° |
| 2026-04-25 05:03 | -33.74557 | 150.97899 | 4065 ft | 210 kts | 342° |
| 2026-04-25 05:03 | -33.73150 | 150.97501 | 3959 ft | 208 kts | 2° |
| 2026-04-25 05:03 | -33.71813 | 150.98014 | 3821 ft | 204 kts | 37° |
| 2026-04-25 05:04 | -33.70989 | 150.99364 | 3447 ft | 204 kts | 72° |
| 2026-04-25 05:04 | -33.70713 | 151.01038 | 3074 ft | 205 kts | 81° |
| 2026-04-25 05:04 | -33.70545 | 151.02732 | 3002 ft | 205 kts | 82° |
| 2026-04-25 05:04 | -33.70387 | 151.04449 | 2989 ft | 208 kts | 82° |
| 2026-04-25 05:05 | -33.70279 | 151.06192 | 2980 ft | 211 kts | 94° |
| 2026-04-25 05:05 | -33.70814 | 151.07820 | 2994 ft | 215 kts | 125° |
| 2026-04-25 05:05 | -33.71797 | 151.09181 | 2999 ft | 216 kts | 133° |
| 2026-04-25 05:05 | -33.72836 | 151.10490 | 3013 ft | 215 kts | 133° |
| 2026-04-25 05:06 | -33.73851 | 151.11733 | 3016 ft | 205 kts | 138° |
| 2026-04-25 05:06 | -33.75089 | 151.12536 | 3004 ft | 203 kts | 165° |
| 2026-04-25 05:06 | -33.76460 | 151.12897 | 3013 ft | 201 kts | 168° |
| 2026-04-25 05:06 | -33.77821 | 151.13248 | 2937 ft | 195 kts | 167° |
| 2026-04-25 05:07 | -33.79117 | 151.13583 | 2740 ft | 186 kts | 167° |
| 2026-04-25 05:07 | -33.80360 | 151.13904 | 2502 ft | 180 kts | 167° |
| 2026-04-25 05:07 | -33.81567 | 151.14216 | 2293 ft | 174 kts | 167° |
| 2026-04-25 05:07 | -33.82741 | 151.14519 | 2057 ft | 171 kts | 167° |
| 2026-04-25 05:08 | -33.83896 | 151.14818 | 1832 ft | 169 kts | 165° |
| 2026-04-25 05:08 | -33.85038 | 151.15113 | 1612 ft | 166 kts | 164° |
| 2026-04-25 05:08 | -33.86149 | 151.15398 | 1402 ft | 162 kts | 166° |
| 2026-04-25 05:08 | -33.87236 | 151.15652 | 1131 ft | 158 kts | 165° |
| 2026-04-25 05:09 | -33.88300 | 151.15946 | 968 ft | 157 kts | 163° |
| 2026-04-25 05:09 | -33.89359 | 151.16228 | 795 ft | 157 kts | 164° |
| 2026-04-25 05:09 | -33.90422 | 151.16500 | 611 ft | 155 kts | 166° |
| 2026-04-25 05:09 | -33.91466 | 151.16772 | 385 ft | 155 kts | 164° |
| 2026-04-25 05:10 | -33.92488 | 151.17041 | 191 ft | 153 kts | 164° |
| 2026-04-25 05:10 | -33.93520 | 151.17307 | 36 ft | 144 kts | 163° |
| 2026-04-25 05:10 | -33.94365 | 151.17530 | 30 ft | 90 kts | 167° |
| 2026-04-25 05:10 | -33.94689 | 151.17613 | 29 ft | 25 kts | 171° |
| 2026-04-25 05:11 | -33.94749 | 151.17517 | 30 ft | 15 kts | 276° |
| 2026-04-25 05:11 | -33.94705 | 151.17426 | 30 ft | 3 kts | 324° |
| 2026-04-25 05:11 | -33.94704 | 151.17426 | 30 ft | 0 kts | 325° |
| 2026-04-25 05:15 | -33.94698 | 151.17421 | 30 ft | 4 kts | 327° |
| 2026-04-25 05:16 | -33.94644 | 151.17400 | 30 ft | 12 kts | 348° |
| 2026-04-25 05:16 | -33.94585 | 151.17384 | 30 ft | 14 kts | 348° |
| 2026-04-25 05:16 | -33.94488 | 151.17359 | 30 ft | 15 kts | 348° |
| 2026-04-25 05:16 | -33.94381 | 151.17331 | 30 ft | 16 kts | 348° |
| 2026-04-25 05:17 | -33.94264 | 151.17301 | 30 ft | 18 kts | 348° |
| 2026-04-25 05:17 | -33.94141 | 151.17270 | 28 ft | 15 kts | 348° |
| 2026-04-25 05:17 | -33.94041 | 151.17244 | 29 ft | 13 kts | 348° |
| 2026-04-25 05:17 | -33.93980 | 151.17244 | 29 ft | 7 kts | 29° |
| 2026-04-25 05:18 | -33.93956 | 151.17290 | 28 ft | 4 kts | 71° |
| 2026-04-25 05:18 | -33.93954 | 151.17295 | 28 ft | 0 kts | 73° |
| 2026-04-25 05:19 | -33.93950 | 151.17311 | 28 ft | 8 kts | 73° |
| 2026-04-25 05:19 | -33.93916 | 151.17458 | 27 ft | 24 kts | 74° |
| 2026-04-25 05:19 | -33.93877 | 151.17617 | 29 ft | 12 kts | 73° |
| 2026-04-25 05:20 | -33.93856 | 151.17702 | 30 ft | 10 kts | 73° |
| 2026-04-25 05:20 | -33.93807 | 151.17763 | 30 ft | 11 kts | 19° |
| 2026-04-25 05:20 | -33.93727 | 151.17788 | 30 ft | 13 kts | 14° |
| 2026-04-25 05:20 | -33.93639 | 151.17814 | 30 ft | 10 kts | 10° |
| 2026-04-25 05:21 | -33.93565 | 151.17830 | 30 ft | 9 kts | 10° |
| 2026-04-25 05:21 | -33.93529 | 151.17796 | 30 ft | 8 kts | 288° |
| 2026-04-25 05:21 | -33.93525 | 151.17770 | 30 ft | 0 kts | 281° |